Time;durP1;ratioP1;P1;durP2;ratioP2;P2;SDS_P1;SDS_P2;PMS_P1;PMS_P2;Temp;Humidity;BMP_temperature;BMP_pressure;BME280_temperature;BME280_humidity;BME280_pressure;Samples;Min_cycle;Max_cycle;Signal;HPM_P1;HPM_P2
2021/04/27 04:15:51;;;;;;;4.07;3.30;;;;;;;3.67;58.31;98107.94;5672536;23;20454;-69
2021/04/27 04:18:17;;;;;;;6.72;2.85;;;;;;;3.62;61.04;98117.31;4878250;29;20037;-69
2021/04/27 04:20:42;;;;;;;14.10;3.58;;;;;;;3.50;57.24;98114.78;4878355;29;20024;-69
2021/04/27 04:23:07;;;;;;;7.15;3.03;;;;;;;3.51;60.87;98111.38;4877055;29;20040;-69
2021/04/27 04:25:33;;;;;;;6.25;2.65;;;;;;;3.50;57.89;98109.66;4878233;29;20048;-69
2021/04/27 04:27:58;;;;;;;5.47;3.00;;;;;;;3.55;57.08;98113.94;4878292;29;20032;-69
2021/04/27 04:30:24;;;;;;;6.57;3.33;;;;;;;3.58;58.12;98118.22;4878359;29;20073;-69
2021/04/27 04:32:51;;;;;;;6.25;2.85;;;;;;;3.64;58.19;98117.34;4878068;29;20081;-69
2021/04/27 04:35:18;;;;;;;4.38;2.97;;;;;;;3.63;58.02;98120.72;4878197;29;20502;-69
2021/04/27 04:37:44;;;;;;;6.32;3.05;;;;;;;3.70;57.13;98122.44;4878016;29;20064;-69
2021/04/27 04:40:15;;;;;;;6.57;3.33;;;;;;;3.74;59.57;98114.75;4878055;29;20108;-69
2021/04/27 04:42:41;;;;;;;4.93;3.13;;;;;;;3.80;58.87;98125.00;4878063;29;20029;-69
2021/04/27 04:45:09;;;;;;;7.90;3.05;;;;;;;3.53;58.65;98115.66;4878181;29;20051;-69
2021/04/27 04:47:35;;;;;;;8.70;2.60;;;;;;;3.18;59.17;98123.31;4877966;29;20105;-68
2021/04/27 04:50:01;;;;;;;5.90;3.08;;;;;;;3.14;58.96;98120.75;4878008;29;20021;-68
2021/04/27 04:52:27;;;;;;;4.65;2.83;;;;;;;3.30;58.55;98119.91;4861401;29;20040;-68
2021/04/27 04:54:53;;;;;;;5.20;3.20;;;;;;;3.38;58.70;98120.75;4878077;29;20029;-71
2021/04/27 04:57:19;;;;;;;8.15;2.72;;;;;;;3.70;58.03;98118.19;4878052;29;20072;-71
2021/04/27 04:59:45;;;;;;;5.18;3.20;;;;;;;3.41;58.21;98119.91;4877737;29;20060;-70
2021/04/27 05:02:10;;;;;;;7.82;3.28;;;;;;;3.59;57.80;98114.78;4878040;29;20025;-70
2021/04/27 05:04:35;;;;;;;7.40;3.53;;;;;;;3.49;58.62;98123.34;4878089;29;20045;-70
2021/04/27 05:07:10;;;;;;;3.33;3.03;;;;;;;3.62;57.42;98117.31;4877930;29;20356;-70
2021/04/27 05:09:36;;;;;;;8.88;3.38;;;;;;;3.59;57.39;98122.47;4877792;29;20364;-70
2021/04/27 05:12:02;;;;;;;7.88;3.10;;;;;;;3.98;56.60;98118.13;4877772;29;20033;-70
2021/04/27 05:14:29;;;;;;;4.97;3.10;;;;;;;4.45;54.87;98124.78;4877677;29;20094;-70
2021/04/27 05:16:57;;;;;;;4.63;3.10;;;;;;;4.62;55.32;98128.16;4877607;29;20044;-70
2021/04/27 05:19:23;;;;;;;7.70;3.15;;;;;;;4.59;55.17;98128.16;4877692;29;20053;-70
2021/04/27 05:21:48;;;;;;;6.90;3.50;;;;;;;4.92;53.70;98126.28;4853381;29;20073;-70
2021/04/27 05:24:13;;;;;;;7.00;3.20;;;;;;;4.95;53.89;98128.84;4877641;29;20044;-70
2021/04/27 05:26:39;;;;;;;7.30;3.70;;;;;;;4.95;53.85;98128.84;4877678;29;20040;-70
2021/04/27 05:29:04;;;;;;;11.00;3.50;;;;;;;5.01;54.21;98131.34;4880814;29;20028;-70
2021/04/27 05:31:29;;;;;;;14.15;3.47;;;;;;;5.11;53.93;98130.44;4880963;29;20025;-70
2021/04/27 05:33:55;;;;;;;4.75;3.35;;;;;;;5.54;54.81;98125.81;4880966;29;20032;-70
2021/04/27 05:36:20;;;;;;;10.48;3.55;;;;;;;5.37;52.67;98128.53;4880926;29;20028;-70
2021/04/27 05:38:46;;;;;;;5.80;3.22;;;;;;;5.82;53.00;98129.00;4880848;29;20104;-70
2021/04/27 05:41:13;;;;;;;10.55;3.55;;;;;;;5.80;50.94;98120.47;4880797;29;20032;-70
2021/04/27 05:43:38;;;;;;;8.73;3.92;;;;;;;5.82;52.07;98123.84;4880767;29;20092;-71
2021/04/27 05:46:03;;;;;;;8.82;4.05;;;;;;;6.05;50.56;98121.09;4880752;29;20037;-71
2021/04/27 05:48:29;;;;;;;6.63;3.83;;;;;;;6.08;50.90;98121.03;4880810;29;20017;-71
2021/04/27 05:50:54;;;;;;;16.13;3.90;;;;;;;6.22;50.89;98108.03;4880606;29;20053;-71
2021/04/27 05:53:19;;;;;;;11.85;3.38;;;;;;;6.24;49.59;98106.31;4880595;29;20056;-71
2021/04/27 05:55:45;;;;;;;14.40;3.53;;;;;;;6.34;49.47;98112.22;4880650;29;20029;-71
2021/04/27 05:58:10;;;;;;;9.15;4.00;;;;;;;6.46;49.73;98117.19;4880543;29;20482;-71
2021/04/27 06:00:37;;;;;;;8.88;4.00;;;;;;;6.46;49.35;98106.03;4880319;29;20466;-71
2021/04/27 06:03:03;;;;;;;11.27;3.20;;;;;;;6.34;51.12;98101.91;4880537;29;20039;-71
2021/04/27 06:05:28;;;;;;;7.50;3.20;;;;;;;6.69;48.92;98097.16;4874421;29;20470;-71
2021/04/27 06:07:54;;;;;;;7.22;3.28;;;;;;;6.79;47.02;98102.19;4874444;29;20109;-71
2021/04/27 06:10:19;;;;;;;7.65;3.40;;;;;;;6.85;47.52;98102.94;4879744;29;20024;-71
2021/04/27 06:12:45;;;;;;;6.43;3.25;;;;;;;6.80;47.43;98099.56;4879975;29;20439;-71
2021/04/27 06:15:12;;;;;;;6.22;3.05;;;;;;;6.81;46.44;98093.53;4879465;29;20037;-71
2021/04/27 06:17:37;;;;;;;11.07;3.28;;;;;;;6.65;48.16;98098.06;4879713;29;20029;-71
2021/04/27 06:20:06;;;;;;;9.68;3.80;;;;;;;6.77;47.49;98097.06;4879863;29;20039;-71
2021/04/27 06:22:31;;;;;;;7.93;3.92;;;;;;;7.25;47.21;98104.06;4880012;29;20025;-71
2021/04/27 06:24:56;;;;;;;4.07;2.78;;;;;;;7.46;46.03;98098.59;4880017;29;20033;-71
2021/04/27 06:27:24;;;;;;;6.75;3.70;;;;;;;7.54;46.01;98093.28;4879079;29;20071;-71
2021/04/27 06:29:50;;;;;;;6.22;3.40;;;;;;;7.34;46.36;98094.47;4879819;29;20057;-71
2021/04/27 06:32:16;;;;;;;5.43;3.85;;;;;;;7.54;45.48;98091.56;4879899;29;20119;-71
2021/04/27 06:34:41;;;;;;;9.07;3.83;;;;;;;7.96;46.28;98083.94;4879762;29;20395;-71
2021/04/27 06:37:07;;;;;;;4.72;3.47;;;;;;;7.94;44.73;98086.56;4879570;29;20021;-71
2021/04/27 06:39:32;;;;;;;5.43;3.40;;;;;;;8.31;45.44;98084.97;4861710;29;20056;-71
2021/04/27 06:41:57;;;;;;;7.43;3.70;;;;;;;8.30;44.13;98086.72;4848873;29;20097;-71
2021/04/27 06:44:23;;;;;;;7.22;3.75;;;;;;;8.61;43.76;98086.13;4879666;29;20029;-71
2021/04/27 06:46:48;;;;;;;7.80;3.42;;;;;;;10.02;41.05;98071.50;4879535;29;20562;-71
2021/04/27 06:49:13;;;;;;;5.47;3.88;;;;;;;10.63;39.51;98062.88;4879527;29;20479;-71
2021/04/27 06:51:39;;;;;;;8.18;4.35;;;;;;;11.78;37.00;98067.84;4878277;29;20029;-71
2021/04/27 06:54:04;;;;;;;9.85;3.65;;;;;;;13.48;32.96;98054.53;4879370;29;20650;-71
2021/04/27 06:56:29;;;;;;;10.88;3.92;;;;;;;14.49;31.53;98050.16;4879373;29;20048;-71
2021/04/27 06:58:55;;;;;;;4.32;3.10;;;;;;;15.43;30.25;98054.44;4879185;29;20048;-71
2021/04/27 07:01:20;;;;;;;7.53;3.70;;;;;;;16.10;28.87;98051.06;4878997;29;20035;-73
2021/04/27 07:03:48;;;;;;;9.82;3.42;;;;;;;14.09;31.21;98067.56;4878482;29;20036;-72
2021/04/27 07:06:14;;;;;;;5.47;3.72;;;;;;;14.43;31.17;98060.00;4879144;29;20493;-72
2021/04/27 07:08:40;;;;;;;7.43;4.05;;;;;;;15.85;29.14;98053.22;4879220;29;20108;-72
2021/04/27 07:11:06;;;;;;;6.88;3.58;;;;;;;14.87;30.64;98060.59;4878826;29;20475;-72
2021/04/27 07:13:32;;;;;;;5.72;3.22;;;;;;;14.27;30.77;98054.66;4878612;29;20088;-72
2021/04/27 07:15:57;;;;;;;7.53;3.95;;;;;;;15.09;29.13;98045.63;4878188;29;20028;-72
2021/04/27 07:18:23;;;;;;;6.88;3.53;;;;;;;14.78;30.34;98045.38;4878981;29;20029;-72
2021/04/27 07:20:48;;;;;;;5.47;4.10;;;;;;;15.90;28.61;98030.31;4878696;29;20033;-72
2021/04/27 07:23:14;;;;;;;5.18;3.65;;;;;;;17.61;26.18;98026.16;4879026;29;20028;-72
2021/04/27 07:25:39;;;;;;;18.65;5.43;;;;;;;17.42;26.83;98038.63;4877984;29;20029;-72
2021/04/27 07:28:05;;;;;;;6.70;3.80;;;;;;;17.79;26.12;98031.25;4878608;29;20032;-72
2021/04/27 07:30:32;;;;;;;5.95;3.70;;;;;;;16.90;27.50;98038.94;4878652;29;20032;-70
2021/04/27 07:32:58;;;;;;;6.53;3.63;;;;;;;15.75;28.49;98038.94;4878741;29;20028;-70
2021/04/27 07:35:23;;;;;;;4.63;3.50;;;;;;;17.79;26.63;98031.25;4878872;29;20092;-70
2021/04/27 07:37:49;;;;;;;9.70;4.10;;;;;;;15.02;29.44;98043.38;4877657;29;20475;-70
2021/04/27 07:40:15;;;;;;;8.68;3.63;;;;;;;17.44;27.40;98036.75;4878329;29;20060;-70
2021/04/27 07:42:40;;;;;;;7.70;3.72;;;;;;;17.66;26.60;98036.34;4861989;29;20029;-70
2021/04/27 07:45:07;;;;;;;10.25;3.58;;;;;;;18.32;25.74;98035.03;4878571;29;20020;-70
2021/04/27 07:47:33;;;;;;;8.60;4.13;;;;;;;17.39;26.63;98038.78;4878567;29;20036;-70
2021/04/27 07:49:59;;;;;;;6.43;4.30;;;;;;;17.67;26.58;98038.88;4876793;29;20021;-70
2021/04/27 07:52:26;;;;;;;6.10;3.95;;;;;;;17.89;26.73;98037.63;4832004;29;20672;-71
2021/04/27 07:54:51;;;;;;;9.45;4.00;;;;;;;18.52;25.14;98037.31;4878267;29;20036;-71
2021/04/27 07:57:16;;;;;;;6.57;3.97;;;;;;;18.57;25.70;98040.47;4781057;29;20033;-71
2021/04/27 07:59:42;;;;;;;7.22;4.30;;;;;;;19.18;24.38;98028.72;4778093;29;20516;-71
2021/04/27 08:02:08;;;;;;;10.73;4.93;;;;;;;17.66;25.74;98031.97;4745528;29;20048;-71
2021/04/27 08:04:33;;;;;;;6.30;4.25;;;;;;;17.01;27.91;98049.66;4780315;29;20049;-70
2021/04/27 08:06:59;;;;;;;12.15;4.55;;;;;;;16.18;28.97;98041.03;4780785;29;20044;-70
2021/04/27 08:09:25;;;;;;;6.97;4.68;;;;;;;16.35;28.55;98042.75;4726883;29;20129;-70
2021/04/27 08:11:53;;;;;;;6.95;4.03;;;;;;;17.10;27.74;98041.28;4780056;29;20041;-71
2021/04/27 08:14:19;;;;;;;8.88;4.50;;;;;;;18.43;25.27;98032.63;4734368;29;20049;-72
2021/04/27 08:16:44;;;;;;;4.95;3.60;;;;;;;18.35;25.21;98033.09;4780037;29;20125;-71
2021/04/27 08:19:09;;;;;;;6.65;4.78;;;;;;;20.09;23.56;98028.81;4737137;29;20049;-70
2021/04/27 08:21:35;;;;;;;8.85;4.55;;;;;;;20.52;22.83;98031.13;4777201;29;20068;-71
2021/04/27 08:24:00;;;;;;;9.23;4.22;;;;;;;20.12;23.16;98028.59;4779028;29;20106;-71
2021/04/27 08:26:26;;;;;;;8.23;4.10;;;;;;;20.43;23.65;98026.47;4738685;29;20453;-71
2021/04/27 08:28:51;;;;;;;8.30;4.68;;;;;;;20.72;22.83;98033.19;4780778;29;20517;-71
2021/04/27 08:31:17;;;;;;;5.90;4.32;;;;;;;20.92;22.66;98033.53;4730087;29;20037;-71
2021/04/27 08:33:42;;;;;;;5.93;4.30;;;;;;;21.37;22.78;98029.41;4782134;29;20080;-71
2021/04/27 08:36:08;;;;;;;7.82;4.45;;;;;;;21.32;22.44;98026.22;4747474;29;20120;-71
2021/04/27 08:38:34;;;;;;;7.22;4.15;;;;;;;20.46;23.07;98027.09;4769850;29;20049;-71
2021/04/27 08:41:01;;;;;;;9.02;4.47;;;;;;;22.43;21.22;98018.69;4777961;29;20106;-71
2021/04/27 08:43:26;;;;;;;11.05;4.90;;;;;;;20.97;21.83;98031.41;4728790;29;20095;-71
2021/04/27 08:45:52;;;;;;;8.85;4.95;;;;;;;22.57;21.19;98015.81;4780378;29;20045;-71
2021/04/27 08:48:17;;;;;;;6.47;4.13;;;;;;;22.90;20.73;98011.47;4730684;29;20044;-71
2021/04/27 08:50:44;;;;;;;11.68;4.45;;;;;;;22.62;21.18;98013.63;4780309;29;20398;-71
2021/04/27 08:53:10;;;;;;;6.35;4.22;;;;;;;22.20;20.64;98021.34;4744533;29;20041;-71
2021/04/27 08:55:37;;;;;;;6.30;4.50;;;;;;;24.25;19.49;98007.22;4771896;29;20109;-71
2021/04/27 08:58:07;;;;;;;11.57;4.30;;;;;;;22.98;20.80;98007.25;4773619;29;20406;-71
2021/04/27 09:00:33;;;;;;;7.43;4.70;;;;;;;23.03;20.05;98009.53;4756234;29;20180;-72
2021/04/27 09:03:01;;;;;;;6.25;4.57;;;;;;;24.64;18.52;98007.38;4785598;29;20097;-72
2021/04/27 09:05:30;;;;;;;9.02;4.57;;;;;;;24.96;18.41;98001.06;4732956;29;20066;-72
2021/04/27 09:07:56;;;;;;;6.97;4.53;;;;;;;24.38;18.22;98012.31;4785568;29;20033;-72
2021/04/27 09:10:25;;;;;;;6.13;3.90;;;;;;;23.74;19.37;98008.06;4738936;29;20040;-72
2021/04/27 09:12:52;;;;;;;9.18;4.70;;;;;;;23.08;19.93;97996.78;4783548;29;20533;-71
2021/04/27 09:15:28;;;;;;;8.98;4.88;;;;;;;23.54;19.19;98000.91;4736820;29;20072;-72
2021/04/27 09:17:54;;;;;;;7.38;4.78;;;;;;;21.90;21.02;98002.56;4775213;29;20049;-71
2021/04/27 09:20:20;;;;;;;10.13;5.63;;;;;;;21.55;21.15;97992.88;4734207;29;20045;-71
2021/04/27 09:22:45;;;;;;;7.13;4.60;;;;;;;22.14;21.00;97990.13;4782445;29;20048;-71
2021/04/27 09:25:12;;;;;;;8.93;4.50;;;;;;;24.11;20.04;97984.56;4753571;29;20451;-71
2021/04/27 09:27:44;;;;;;;7.03;4.63;;;;;;;24.41;18.80;97987.38;4774072;29;20079;-71
2021/04/27 09:30:10;;;;;;;5.97;4.82;;;;;;;24.91;18.61;97987.38;4751960;29;20069;-71
2021/04/27 09:32:39;;;;;;;9.23;4.90;;;;;;;26.11;17.62;97978.13;4768424;29;20423;-71
2021/04/27 09:35:35;;;;;;;5.80;4.35;;;;;;;25.07;17.80;97988.53;4777552;29;20739;-71
2021/04/27 09:38:29;;;;;;;8.55;4.80;;;;;;;24.28;18.24;97979.66;4755313;29;20513;-71
2021/04/27 09:41:02;;;;;;;9.98;4.70;;;;;;;25.76;17.57;97979.59;4732625;29;20040;-72
2021/04/27 09:43:34;;;;;;;7.82;4.95;;;;;;;23.22;20.10;97975.34;4739239;29;20033;-72
2021/04/27 09:46:31;;;;;;;9.43;5.43;;;;;;;24.25;18.42;97974.59;4912884;27;20891;-70
2021/04/27 09:49:00;;;;;;;9.52;5.22;;;;;;;26.39;16.94;97961.22;4920244;27;20046;-70
2021/04/27 09:51:30;;;;;;;7.38;5.07;;;;;;;26.46;16.37;97966.00;4876113;27;20052;-70
2021/04/27 09:53:57;;;;;;;7.25;4.85;;;;;;;24.80;17.25;97954.72;4910783;28;20064;-70
2021/04/27 09:56:49;;;;;;;8.93;5.25;;;;;;;24.33;17.76;97956.25;4872137;27;20121;-70
2021/04/27 09:59:15;;;;;;;8.40;4.97;;;;;;;21.72;20.33;97970.53;4880810;27;20062;-70
2021/04/27 10:01:45;;;;;;;13.82;5.15;;;;;;;22.94;19.66;97957.44;4903770;27;20124;-70
2021/04/27 10:04:11;;;;;;;8.93;5.60;;;;;;;21.16;20.77;97968.53;4900446;28;20034;-70
2021/04/27 10:06:41;;;;;;;9.35;5.40;;;;;;;22.37;20.41;97955.81;4888093;28;20049;-70
2021/04/27 10:09:07;;;;;;;10.15;5.50;;;;;;;23.26;19.16;97947.69;4910217;28;20052;-70
2021/04/27 10:11:34;;;;;;;8.48;5.13;;;;;;;23.81;18.49;97953.63;4872571;27;20114;-68
2021/04/27 10:14:00;;;;;;;10.15;5.65;;;;;;;24.14;18.73;97949.06;4910954;28;20046;-68
2021/04/27 10:16:26;;;;;;;8.05;5.00;;;;;;;23.66;19.42;97948.81;4861420;28;20070;-69
2021/04/27 10:18:55;;;;;;;7.00;5.45;;;;;;;22.12;20.71;97946.38;4912242;28;20034;-70
2021/04/27 10:21:21;;;;;;;8.05;5.80;;;;;;;22.78;20.12;97937.50;4860435;28;20587;-70
2021/04/27 10:23:49;;;;;;;8.38;5.05;;;;;;;21.68;20.08;97940.91;4908398;28;20058;-73
2021/04/27 10:26:19;;;;;;;8.80;4.73;;;;;;;23.43;19.81;97930.41;4868814;28;20490;-73
2021/04/27 10:28:59;;;;;;;7.82;5.60;;;;;;;21.74;20.20;97932.53;4907708;28;20713;-73
2021/04/27 10:31:26;;;;;;;7.60;5.47;;;;;;;21.50;20.58;97931.78;4863347;28;20073;-73
2021/04/27 10:34:04;;;;;;;6.13;5.20;;;;;;;23.01;19.24;97921.59;4910964;28;20042;-73
2021/04/27 10:36:30;;;;;;;9.88;5.60;;;;;;;22.96;19.42;97918.50;4859473;28;20446;-73
2021/04/27 10:38:58;;;;;;;6.22;5.18;;;;;;;22.75;19.75;97913.97;4911128;27;20457;-73
2021/04/27 10:41:44;;;;;;;10.48;5.38;;;;;;;23.60;18.68;97915.78;4859283;27;20034;-73
2021/04/27 10:44:09;;;;;;;13.02;6.18;;;;;;;23.40;19.06;97906.03;4898344;27;20045;-73
2021/04/27 10:46:35;;;;;;;6.03;5.13;;;;;;;24.82;17.77;97905.06;4874115;28;20042;-73
2021/04/27 10:49:09;;;;;;;9.27;5.00;;;;;;;21.27;21.28;97900.06;4909576;28;20030;-73
2021/04/27 10:51:40;;;;;;;7.30;5.25;;;;;;;23.56;19.12;97893.19;4859654;27;20046;-72
2021/04/27 10:54:15;;;;;;;7.25;5.20;;;;;;;23.63;18.99;97888.22;4916896;27;20143;-72
2021/04/27 10:56:52;;;;;;;11.80;5.25;;;;;;;24.65;17.77;97887.19;4877526;27;20462;-72
2021/04/27 10:59:21;;;;;;;5.75;5.00;;;;;;;25.06;17.31;97872.00;4874415;27;20172;-72
2021/04/27 11:02:08;;;;;;;8.00;5.85;;;;;;;22.74;19.62;97879.78;4921013;27;20403;-72
2021/04/27 11:04:45;;;;;;;15.43;5.32;;;;;;;23.64;19.02;97889.91;4961968;27;20051;-72
2021/04/27 11:07:19;;;;;;;9.88;6.03;;;;;;;21.95;20.28;97886.97;5012588;28;20029;-72
2021/04/27 11:10:00;;;;;;;5.43;4.90;;;;;;;24.31;18.21;97876.94;5010172;28;20034;-72
2021/04/27 11:12:28;;;;;;;7.38;5.88;;;;;;;25.04;18.54;97866.81;5014743;28;20091;-73
2021/04/27 11:14:56;;;;;;;8.73;5.10;;;;;;;26.28;17.48;97863.13;5013645;28;20032;-73
2021/04/27 11:17:39;;;;;;;8.15;5.40;;;;;;;25.29;17.68;97860.16;5012497;28;20028;-73
2021/04/27 11:20:09;;;;;;;7.93;5.32;;;;;;;23.82;18.60;97868.00;5012786;28;20159;-73
2021/04/27 11:22:36;;;;;;;6.55;5.47;;;;;;;22.13;20.57;97863.59;5013045;28;20194;-72
2021/04/27 11:25:04;;;;;;;6.88;5.47;;;;;;;23.75;18.84;97860.75;5010987;28;20030;-73
2021/04/27 11:27:33;;;;;;;6.85;5.13;;;;;;;23.93;18.99;97866.22;5011785;28;20052;-73
2021/04/27 11:30:05;;;;;;;11.67;5.80;;;;;;;24.58;18.19;97862.25;5011092;28;20027;-73
2021/04/27 11:32:32;;;;;;;11.35;5.72;;;;;;;22.61;20.03;97858.81;5010950;28;20308;-73
2021/04/27 11:35:15;;;;;;;11.05;5.70;;;;;;;23.71;19.60;97854.88;5013070;28;20027;-73
2021/04/27 11:37:48;;;;;;;10.55;5.20;;;;;;;24.19;20.00;97850.72;5012460;28;20116;-73
2021/04/27 11:40:15;;;;;;;8.23;5.22;;;;;;;24.20;18.50;97844.44;5012205;28;20038;-72
2021/04/27 11:42:41;;;;;;;10.38;5.80;;;;;;;21.52;20.31;97862.16;5012945;28;20030;-72
2021/04/27 11:45:13;;;;;;;9.45;5.93;;;;;;;22.30;20.09;97845.47;5045041;28;20368;-72
2021/04/27 11:47:43;;;;;;;8.75;5.32;;;;;;;22.64;19.72;97837.44;4998987;28;20469;-72
2021/04/27 11:50:10;;;;;;;9.05;5.45;;;;;;;22.06;19.96;97839.50;5051022;28;20024;-73
2021/04/27 11:53:01;;;;;;;9.25;5.28;;;;;;;21.93;19.67;97841.41;5040475;28;20028;-70
2021/04/27 11:55:49;;;;;;;6.47;4.55;;;;;;;24.19;17.83;97821.59;4976819;28;20018;-70
2021/04/27 11:58:17;;;;;;;11.05;5.97;;;;;;;21.77;20.74;97842.63;4991024;28;20034;-72
2021/04/27 12:00:52;;;;;;;10.57;5.97;;;;;;;20.60;21.97;97838.41;4990734;28;20289;-74
2021/04/27 12:03:22;;;;;;;10.32;5.65;;;;;;;20.68;22.04;97826.38;4975634;28;20487;-74
2021/04/27 12:05:50;;;;;;;8.55;5.35;;;;;;;19.49;22.86;97834.91;4989846;28;20034;-74
2021/04/27 12:08:31;;;;;;;9.00;5.57;;;;;;;19.23;24.03;97834.91;4989578;28;20037;-73
2021/04/27 12:11:09;;;;;;;7.70;5.75;;;;;;;19.40;22.90;97825.03;4990684;28;20487;-73
2021/04/27 12:13:35;;;;;;;10.40;6.00;;;;;;;18.42;24.44;97811.44;4990773;28;20026;-72
2021/04/27 12:16:04;;;;;;;9.65;5.15;;;;;;;19.42;23.96;97823.97;4989498;28;20105;-72
2021/04/27 12:18:30;;;;;;;9.48;6.07;;;;;;;18.77;25.01;97816.16;4989472;28;20030;-72
2021/04/27 12:20:55;;;;;;;10.32;6.57;;;;;;;18.85;26.42;97816.47;4990362;28;20030;-70
2021/04/27 12:23:23;;;;;;;13.95;5.90;;;;;;;18.75;25.49;97813.63;4990690;28;20026;-72
2021/04/27 12:25:49;;;;;;;10.48;5.78;;;;;;;19.33;24.47;97810.63;4990377;28;20049;-70
2021/04/27 12:28:15;;;;;;;10.45;6.32;;;;;;;19.64;24.00;97802.34;5005036;28;20625;-72
2021/04/27 12:30:41;;;;;;;10.45;5.80;;;;;;;19.63;24.24;97798.03;4990145;28;20028;-72
2021/04/27 12:33:10;;;;;;;9.25;5.57;;;;;;;19.03;24.95;97790.78;4990496;28;20422;-72
2021/04/27 12:35:38;;;;;;;13.60;6.75;;;;;;;18.56;25.84;97794.78;4990573;28;20497;-72
2021/04/27 12:38:15;;;;;;;9.55;6.50;;;;;;;18.69;26.07;97782.56;4990330;28;20091;-72
2021/04/27 12:40:51;;;;;;;10.82;6.97;;;;;;;18.12;26.29;97790.66;4989209;28;20096;-72
2021/04/27 12:43:26;;;;;;;11.90;6.50;;;;;;;18.63;25.24;97788.19;4990369;28;20448;-72
2021/04/27 12:45:56;;;;;;;11.23;6.18;;;;;;;18.63;24.74;97775.06;4990152;28;20097;-72
2021/04/27 12:48:22;;;;;;;11.05;6.10;;;;;;;19.03;25.51;97779.44;4990270;28;20390;-72
2021/04/27 12:50:51;;;;;;;10.20;6.57;;;;;;;18.91;25.93;97774.09;4989747;28;20022;-73
2021/04/27 12:53:18;;;;;;;9.85;6.82;;;;;;;19.17;25.75;97771.44;4989483;28;20018;-72
2021/04/27 12:55:53;;;;;;;11.13;6.45;;;;;;;19.05;26.02;97761.78;4990063;28;20022;-72
2021/04/27 12:58:22;;;;;;;12.50;6.28;;;;;;;18.86;26.67;97762.22;4990276;28;20032;-72
2021/04/27 13:00:49;;;;;;;;;;;;;;;18.95;25.11;97758.94;4990241;28;20110;-72
2021/04/27 13:03:16;;;;;;;9.60;6.00;;;;;;;19.03;24.01;97758.44;4989446;28;19910;-72
2021/04/27 13:05:42;;;;;;;13.23;6.65;;;;;;;18.43;24.94;97760.66;4989557;28;20475;-72
2021/04/27 13:08:08;;;;;;;12.90;6.13;;;;;;;18.67;25.91;97758.19;4989894;28;20036;-72
2021/04/27 13:10:33;;;;;;;17.58;6.97;;;;;;;17.61;26.55;97761.56;4989990;28;20026;-72
2021/04/27 13:12:59;;;;;;;11.48;6.35;;;;;;;18.06;26.19;97753.50;4989995;28;20106;-72
2021/04/27 13:15:26;;;;;;;9.05;6.28;;;;;;;18.09;26.81;97755.94;4989022;28;20037;-72
2021/04/27 13:18:03;;;;;;;8.32;6.20;;;;;;;18.96;24.97;97747.53;4989641;28;20022;-72
2021/04/27 13:20:41;;;;;;;8.70;5.63;;;;;;;18.62;26.66;97744.53;4989452;28;20022;-72
2021/04/27 13:23:11;;;;;;;8.07;5.93;;;;;;;19.01;24.84;97729.66;4989678;28;20022;-72
2021/04/27 13:25:43;;;;;;;7.63;5.57;;;;;;;18.88;24.64;97731.44;4989653;28;20022;-72
2021/04/27 13:28:16;;;;;;;10.18;5.75;;;;;;;17.94;24.07;97742.03;4989129;28;20479;-73
2021/04/27 13:30:48;;;;;;;15.35;5.60;;;;;;;18.49;24.85;97722.69;4989933;28;20113;-72
2021/04/27 13:33:20;;;;;;;10.40;6.15;;;;;;;18.43;23.79;97723.09;4989907;28;20022;-72
2021/04/27 13:35:48;;;;;;;10.10;5.47;;;;;;;18.88;23.18;97723.56;4989697;28;20015;-72
2021/04/27 13:38:16;;;;;;;7.93;5.32;;;;;;;19.07;22.43;97710.84;4989001;28;20025;-70
2021/04/27 13:40:45;;;;;;;9.63;5.88;;;;;;;18.83;23.26;97717.81;4989182;28;20058;-71
2021/04/27 13:43:23;;;;;;;16.90;5.93;;;;;;;18.18;24.36;97706.38;4989669;28;20089;-72
2021/04/27 13:45:50;;;;;;;16.55;6.38;;;;;;;18.64;23.44;97711.16;4989436;28;20041;-72
2021/04/27 13:48:16;;;;;;;9.43;5.85;;;;;;;18.80;23.91;97704.88;4989538;28;20038;-72
2021/04/27 13:50:44;;;;;;;10.88;5.45;;;;;;;19.31;22.34;97694.31;4988384;28;20390;-72
2021/04/27 13:53:14;;;;;;;6.25;5.22;;;;;;;19.60;23.30;97698.38;4988765;28;20156;-73
2021/04/27 13:55:41;;;;;;;9.75;5.55;;;;;;;18.29;22.67;97704.81;4981873;28;20392;-72
2021/04/27 13:58:07;;;;;;;6.78;5.45;;;;;;;18.65;22.92;97697.06;4989290;28;20022;-72
2021/04/27 14:00:33;;;;;;;11.75;5.28;;;;;;;19.07;22.58;97692.47;4989090;28;20030;-72
2021/04/27 14:02:58;;;;;;;14.25;6.10;;;;;;;18.79;23.09;97692.69;4987573;28;20030;-70
2021/04/27 14:05:27;;;;;;;9.13;5.15;;;;;;;19.03;23.38;97685.75;5011837;28;20053;-70
2021/04/27 14:07:54;;;;;;;9.32;5.43;;;;;;;18.87;24.04;97686.00;5007630;28;20032;-70
2021/04/27 14:10:22;;;;;;;7.22;5.28;;;;;;;18.13;23.97;97679.63;5011182;28;20030;-70
2021/04/27 14:12:50;;;;;;;9.30;5.03;;;;;;;19.04;24.68;97679.56;5009444;28;20024;-70
2021/04/27 14:15:18;;;;;;;12.75;5.78;;;;;;;18.89;24.24;97673.59;5006654;28;20148;-72
2021/04/27 14:17:45;;;;;;;10.27;5.47;;;;;;;19.34;24.22;97673.06;5012151;28;20042;-72
2021/04/27 14:20:13;;;;;;;13.65;6.03;;;;;;;19.26;23.60;97671.84;5011973;28;20037;-72
2021/04/27 14:22:39;;;;;;;12.30;5.03;;;;;;;19.15;23.60;97679.66;5011431;28;20028;-70
2021/04/27 14:25:07;;;;;;;10.63;5.82;;;;;;;18.64;23.97;97671.78;5005380;28;20487;-70
2021/04/27 14:27:32;;;;;;;11.40;5.47;;;;;;;18.52;23.24;97669.16;5011993;28;20029;-70
2021/04/27 14:29:58;;;;;;;9.13;5.50;;;;;;;18.42;24.09;97675.03;5012296;28;20040;-70
2021/04/27 14:32:24;;;;;;;13.80;6.00;;;;;;;18.53;23.29;97670.84;5014394;28;20061;-69
2021/04/27 14:34:49;;;;;;;7.72;5.10;;;;;;;18.16;24.65;97663.66;5013157;28;20476;-73
2021/04/27 14:37:15;;;;;;;9.10;5.32;;;;;;;18.60;24.07;97662.44;5014170;28;20036;-72
2021/04/27 14:39:40;;;;;;;10.63;5.90;;;;;;;17.64;24.36;97667.03;5014733;28;20034;-72
2021/04/27 14:42:05;;;;;;;15.75;6.15;;;;;;;17.62;24.77;97663.69;5015018;28;20114;-69
2021/04/27 14:44:32;;;;;;;11.38;5.95;;;;;;;17.52;24.61;97656.53;5015587;28;20030;-69
2021/04/27 14:46:57;;;;;;;7.25;5.53;;;;;;;18.17;24.86;97660.09;4967174;27;20148;-72
2021/04/27 14:49:23;;;;;;;11.27;5.90;;;;;;;18.73;23.53;97662.47;5012851;28;20117;-72
2021/04/27 14:51:48;;;;;;;14.38;8.32;;;;;;;19.01;23.23;97650.91;5013979;28;20061;-72
2021/04/27 14:54:14;;;;;;;7.75;5.45;;;;;;;19.02;22.74;97649.13;5015152;28;20062;-70
2021/04/27 14:56:39;;;;;;;11.00;5.25;;;;;;;19.05;22.27;97646.25;5012168;28;20054;-72
2021/04/27 14:59:04;;;;;;;7.97;4.55;;;;;;;19.14;22.13;97646.44;5012230;28;20038;-72
2021/04/27 15:01:34;;;;;;;12.38;5.18;;;;;;;18.69;23.24;97646.09;5012511;28;20039;-70
2021/04/27 15:04:00;;;;;;;14.25;5.45;;;;;;;19.43;23.08;97640.91;5014162;28;20563;-71
2021/04/27 15:06:26;;;;;;;8.88;5.20;;;;;;;19.08;22.45;97636.38;4971838;28;20161;-70
2021/04/27 15:08:52;;;;;;;10.20;4.97;;;;;;;18.87;22.31;97637.91;5001135;28;20583;-72
2021/04/27 15:11:17;;;;;;;10.20;5.15;;;;;;;19.13;22.32;97630.81;5013087;28;20031;-72
2021/04/27 15:13:42;;;;;;;11.48;5.20;;;;;;;19.39;21.95;97623.69;4961201;27;20102;-70
2021/04/27 15:16:08;;;;;;;8.07;4.93;;;;;;;19.05;22.39;97628.75;4972534;28;20059;-72
2021/04/27 15:18:33;;;;;;;6.72;4.90;;;;;;;19.24;22.04;97629.09;4960852;27;20043;-72
2021/04/27 15:20:59;;;;;;;10.35;4.78;;;;;;;19.07;22.72;97634.72;5012484;28;21384;-72
2021/04/27 15:23:25;;;;;;;12.02;5.43;;;;;;;18.44;22.74;97635.59;5015388;28;20045;-72
2021/04/27 15:25:50;;;;;;;7.95;5.65;;;;;;;18.54;22.38;97636.63;5018436;28;20024;-72
2021/04/27 15:28:16;;;;;;;8.90;5.18;;;;;;;18.74;22.32;97628.25;5013328;28;20041;-72
2021/04/27 15:30:42;;;;;;;11.23;5.75;;;;;;;19.19;21.71;97623.31;5013855;28;20061;-72
2021/04/27 15:33:07;;;;;;;9.95;5.40;;;;;;;19.17;22.34;97625.22;4964782;28;20032;-72
2021/04/27 15:35:33;;;;;;;9.15;5.05;;;;;;;19.36;22.22;97613.41;5011537;28;20081;-73
2021/04/27 15:38:01;;;;;;;7.82;5.18;;;;;;;19.09;22.27;97627.56;5013814;28;20053;-72
2021/04/27 15:40:29;;;;;;;6.60;5.70;;;;;;;18.70;22.24;97620.69;5012441;28;20038;-72
2021/04/27 15:42:55;;;;;;;8.10;5.10;;;;;;;18.66;23.05;97617.44;5009492;28;20030;-72
2021/04/27 15:45:22;;;;;;;8.20;4.90;;;;;;;18.45;23.16;97622.34;5011182;28;20030;-70
2021/04/27 15:47:48;;;;;;;6.88;4.88;;;;;;;18.70;23.30;97613.66;5014240;28;20103;-70
2021/04/27 15:50:17;;;;;;;15.05;7.05;;;;;;;18.86;22.46;97617.88;5013741;28;20121;-72
2021/04/27 15:52:43;;;;;;;9.07;7.35;;;;;;;18.79;22.71;97613.97;4969284;27;20262;-73